sensor_id;sensor_type;location;lat;lon;timestamp;P1;durP1;ratioP1;P2;durP2;ratioP2
14015;SDS011;7083;48.854;9.158;2023-07-29T00:00:39;3.77;;;2.80;;
14015;SDS011;7083;48.854;9.158;2023-07-29T00:03:06;3.27;;;2.83;;
14015;SDS011;7083;48.854;9.158;2023-07-29T00:05:32;2.80;;;2.60;;
14015;SDS011;7083;48.854;9.158;2023-07-29T00:07:59;2.90;;;2.63;;
14015;SDS011;7083;48.854;9.158;2023-07-29T00:10:26;3.23;;;2.53;;
14015;SDS011;7083;48.854;9.158;2023-07-29T00:12:54;6.00;;;2.73;;
14015;SDS011;7083;48.854;9.158;2023-07-29T00:15:21;5.77;;;3.13;;
14015;SDS011;7083;48.854;9.158;2023-07-29T00:17:47;2.83;;;2.57;;
14015;SDS011;7083;48.854;9.158;2023-07-29T00:20:14;3.20;;;3.00;;
14015;SDS011;7083;48.854;9.158;2023-07-29T00:22:41;2.60;;;2.50;;
14015;SDS011;7083;48.854;9.158;2023-07-29T00:25:08;2.73;;;2.60;;
14015;SDS011;7083;48.854;9.158;2023-07-29T00:27:35;3.07;;;2.87;;
14015;SDS011;7083;48.854;9.158;2023-07-29T00:30:03;3.03;;;2.77;;
14015;SDS011;7083;48.854;9.158;2023-07-29T00:32:31;2.90;;;2.67;;
14015;SDS011;7083;48.854;9.158;2023-07-29T00:34:58;2.70;;;2.60;;
14015;SDS011;7083;48.854;9.158;2023-07-29T00:37:25;2.90;;;2.70;;
14015;SDS011;7083;48.854;9.158;2023-07-29T00:39:52;2.40;;;2.30;;
14015;SDS011;7083;48.854;9.158;2023-07-29T00:42:19;3.57;;;3.03;;
14015;SDS011;7083;48.854;9.158;2023-07-29T00:44:46;4.27;;;3.20;;
14015;SDS011;7083;48.854;9.158;2023-07-29T00:47:14;3.53;;;3.33;;
14015;SDS011;7083;48.854;9.158;2023-07-29T00:49:42;3.57;;;2.90;;
14015;SDS011;7083;48.854;9.158;2023-07-29T00:52:09;5.30;;;2.93;;
14015;SDS011;7083;48.854;9.158;2023-07-29T00:54:37;4.13;;;3.13;;
14015;SDS011;7083;48.854;9.158;2023-07-29T00:57:04;6.40;;;2.77;;
14015;SDS011;7083;48.854;9.158;2023-07-29T00:59:31;3.93;;;3.33;;
14015;SDS011;7083;48.854;9.158;2023-07-29T01:01:58;6.23;;;2.93;;
14015;SDS011;7083;48.854;9.158;2023-07-29T01:04:27;5.20;;;3.10;;
14015;SDS011;7083;48.854;9.158;2023-07-29T01:07:03;3.93;;;3.40;;
14015;SDS011;7083;48.854;9.158;2023-07-29T01:09:41;2.90;;;2.70;;
14015;SDS011;7083;48.854;9.158;2023-07-29T01:12:16;3.57;;;2.47;;
14015;SDS011;7083;48.854;9.158;2023-07-29T01:14:51;6.93;;;3.23;;
14015;SDS011;7083;48.854;9.158;2023-07-29T01:17:27;2.93;;;2.63;;
14015;SDS011;7083;48.854;9.158;2023-07-29T01:20:01;6.70;;;3.60;;
14015;SDS011;7083;48.854;9.158;2023-07-29T01:22:33;3.97;;;3.57;;
14015;SDS011;7083;48.854;9.158;2023-07-29T01:25:02;4.03;;;3.33;;
14015;SDS011;7083;48.854;9.158;2023-07-29T01:27:29;4.20;;;3.90;;
14015;SDS011;7083;48.854;9.158;2023-07-29T01:29:57;4.53;;;3.97;;
14015;SDS011;7083;48.854;9.158;2023-07-29T01:32:25;3.47;;;3.27;;
14015;SDS011;7083;48.854;9.158;2023-07-29T01:34:56;4.03;;;3.73;;
14015;SDS011;7083;48.854;9.158;2023-07-29T01:37:30;6.60;;;4.27;;
14015;SDS011;7083;48.854;9.158;2023-07-29T01:40:01;5.53;;;3.70;;
14015;SDS011;7083;48.854;9.158;2023-07-29T01:42:29;5.53;;;3.63;;
14015;SDS011;7083;48.854;9.158;2023-07-29T01:44:56;3.53;;;3.23;;
14015;SDS011;7083;48.854;9.158;2023-07-29T01:47:23;3.67;;;3.43;;
14015;SDS011;7083;48.854;9.158;2023-07-29T01:49:50;5.93;;;3.80;;
14015;SDS011;7083;48.854;9.158;2023-07-29T01:52:17;5.63;;;2.93;;
14015;SDS011;7083;48.854;9.158;2023-07-29T01:54:44;4.50;;;3.10;;
14015;SDS011;7083;48.854;9.158;2023-07-29T01:57:12;4.73;;;3.20;;
14015;SDS011;7083;48.854;9.158;2023-07-29T01:59:38;6.67;;;3.77;;
14015;SDS011;7083;48.854;9.158;2023-07-29T02:02:05;6.43;;;4.00;;
14015;SDS011;7083;48.854;9.158;2023-07-29T02:04:32;3.50;;;3.20;;
14015;SDS011;7083;48.854;9.158;2023-07-29T02:06:59;8.17;;;3.77;;
14015;SDS011;7083;48.854;9.158;2023-07-29T02:09:26;3.43;;;3.20;;
14015;SDS011;7083;48.854;9.158;2023-07-29T02:11:52;4.03;;;3.73;;
14015;SDS011;7083;48.854;9.158;2023-07-29T02:14:20;3.00;;;2.90;;
14015;SDS011;7083;48.854;9.158;2023-07-29T02:16:47;5.33;;;3.23;;
14015;SDS011;7083;48.854;9.158;2023-07-29T02:19:14;4.43;;;3.33;;
14015;SDS011;7083;48.854;9.158;2023-07-29T02:21:41;3.30;;;2.83;;
14015;SDS011;7083;48.854;9.158;2023-07-29T02:24:07;3.63;;;3.33;;
14015;SDS011;7083;48.854;9.158;2023-07-29T02:26:34;3.20;;;3.00;;
14015;SDS011;7083;48.854;9.158;2023-07-29T02:29:01;2.77;;;2.60;;
14015;SDS011;7083;48.854;9.158;2023-07-29T02:31:29;4.00;;;3.60;;
14015;SDS011;7083;48.854;9.158;2023-07-29T02:33:55;5.50;;;3.40;;
14015;SDS011;7083;48.854;9.158;2023-07-29T02:36:22;3.50;;;3.20;;
14015;SDS011;7083;48.854;9.158;2023-07-29T02:38:49;2.77;;;2.60;;
14015;SDS011;7083;48.854;9.158;2023-07-29T02:41:15;3.50;;;3.10;;
14015;SDS011;7083;48.854;9.158;2023-07-29T02:43:42;3.77;;;2.90;;
14015;SDS011;7083;48.854;9.158;2023-07-29T02:46:09;3.07;;;2.77;;
14015;SDS011;7083;48.854;9.158;2023-07-29T02:48:37;6.03;;;3.00;;
14015;SDS011;7083;48.854;9.158;2023-07-29T02:51:04;4.20;;;3.23;;
14015;SDS011;7083;48.854;9.158;2023-07-29T02:53:30;3.40;;;3.10;;
14015;SDS011;7083;48.854;9.158;2023-07-29T02:55:57;3.13;;;2.93;;
14015;SDS011;7083;48.854;9.158;2023-07-29T02:58:24;6.60;;;3.17;;
14015;SDS011;7083;48.854;9.158;2023-07-29T03:00:51;3.60;;;3.20;;
14015;SDS011;7083;48.854;9.158;2023-07-29T03:03:17;3.90;;;3.03;;
14015;SDS011;7083;48.854;9.158;2023-07-29T03:05:46;4.67;;;3.30;;
14015;SDS011;7083;48.854;9.158;2023-07-29T03:08:13;3.33;;;3.13;;
14015;SDS011;7083;48.854;9.158;2023-07-29T03:10:39;4.50;;;2.60;;
14015;SDS011;7083;48.854;9.158;2023-07-29T03:13:07;3.63;;;2.40;;
14015;SDS011;7083;48.854;9.158;2023-07-29T03:15:33;3.43;;;3.03;;
14015;SDS011;7083;48.854;9.158;2023-07-29T03:18:00;2.70;;;2.60;;
14015;SDS011;7083;48.854;9.158;2023-07-29T03:20:27;3.57;;;3.37;;
14015;SDS011;7083;48.854;9.158;2023-07-29T03:22:55;3.47;;;3.27;;
14015;SDS011;7083;48.854;9.158;2023-07-29T03:25:21;3.17;;;2.97;;
14015;SDS011;7083;48.854;9.158;2023-07-29T03:27:48;3.77;;;3.43;;
14015;SDS011;7083;48.854;9.158;2023-07-29T03:30:19;4.50;;;2.93;;
14015;SDS011;7083;48.854;9.158;2023-07-29T03:32:46;2.93;;;2.67;;
14015;SDS011;7083;48.854;9.158;2023-07-29T03:35:12;3.27;;;3.07;;
14015;SDS011;7083;48.854;9.158;2023-07-29T03:37:39;4.17;;;3.00;;
14015;SDS011;7083;48.854;9.158;2023-07-29T03:40:08;4.47;;;4.07;;
14015;SDS011;7083;48.854;9.158;2023-07-29T03:42:35;3.07;;;2.87;;
14015;SDS011;7083;48.854;9.158;2023-07-29T03:45:02;3.17;;;2.97;;
14015;SDS011;7083;48.854;9.158;2023-07-29T03:47:29;4.33;;;3.03;;
14015;SDS011;7083;48.854;9.158;2023-07-29T03:49:56;5.57;;;2.90;;
14015;SDS011;7083;48.854;9.158;2023-07-29T03:52:23;9.27;;;3.30;;
14015;SDS011;7083;48.854;9.158;2023-07-29T03:54:50;5.50;;;2.77;;
14015;SDS011;7083;48.854;9.158;2023-07-29T03:57:17;3.97;;;3.30;;
14015;SDS011;7083;48.854;9.158;2023-07-29T03:59:44;4.00;;;3.00;;
14015;SDS011;7083;48.854;9.158;2023-07-29T04:02:11;2.63;;;2.53;;
14015;SDS011;7083;48.854;9.158;2023-07-29T04:04:37;5.40;;;3.07;;
14015;SDS011;7083;48.854;9.158;2023-07-29T04:07:05;6.23;;;3.67;;
14015;SDS011;7083;48.854;9.158;2023-07-29T04:09:32;5.53;;;3.80;;
14015;SDS011;7083;48.854;9.158;2023-07-29T04:11:58;7.77;;;4.20;;
14015;SDS011;7083;48.854;9.158;2023-07-29T04:14:26;4.23;;;3.73;;
14015;SDS011;7083;48.854;9.158;2023-07-29T04:16:53;3.83;;;3.40;;
14015;SDS011;7083;48.854;9.158;2023-07-29T04:19:20;3.33;;;3.00;;
14015;SDS011;7083;48.854;9.158;2023-07-29T04:21:46;4.87;;;3.40;;
14015;SDS011;7083;48.854;9.158;2023-07-29T04:24:15;3.40;;;3.10;;
14015;SDS011;7083;48.854;9.158;2023-07-29T04:26:42;6.53;;;3.70;;
14015;SDS011;7083;48.854;9.158;2023-07-29T04:29:09;4.50;;;3.47;;
14015;SDS011;7083;48.854;9.158;2023-07-29T04:31:37;5.83;;;3.73;;
14015;SDS011;7083;48.854;9.158;2023-07-29T04:34:04;3.20;;;3.00;;
14015;SDS011;7083;48.854;9.158;2023-07-29T04:36:31;3.40;;;3.10;;
14015;SDS011;7083;48.854;9.158;2023-07-29T04:38:58;5.20;;;3.10;;
14015;SDS011;7083;48.854;9.158;2023-07-29T04:41:24;3.50;;;3.20;;
14015;SDS011;7083;48.854;9.158;2023-07-29T04:43:51;3.83;;;3.50;;
14015;SDS011;7083;48.854;9.158;2023-07-29T04:46:18;4.27;;;3.30;;
14015;SDS011;7083;48.854;9.158;2023-07-29T04:48:46;3.90;;;3.63;;
14015;SDS011;7083;48.854;9.158;2023-07-29T04:51:12;5.33;;;3.30;;
14015;SDS011;7083;48.854;9.158;2023-07-29T04:53:39;3.50;;;3.30;;
14015;SDS011;7083;48.854;9.158;2023-07-29T04:56:06;4.37;;;4.07;;
14015;SDS011;7083;48.854;9.158;2023-07-29T04:58:32;3.97;;;3.57;;
14015;SDS011;7083;48.854;9.158;2023-07-29T05:01:00;4.47;;;4.13;;
14015;SDS011;7083;48.854;9.158;2023-07-29T05:03:27;5.13;;;3.80;;
14015;SDS011;7083;48.854;9.158;2023-07-29T05:05:55;8.17;;;4.17;;
14015;SDS011;7083;48.854;9.158;2023-07-29T05:08:22;3.87;;;3.57;;
14015;SDS011;7083;48.854;9.158;2023-07-29T05:10:49;5.77;;;4.00;;
14015;SDS011;7083;48.854;9.158;2023-07-29T05:13:16;3.63;;;3.37;;
14015;SDS011;7083;48.854;9.158;2023-07-29T05:15:42;4.10;;;3.80;;
14015;SDS011;7083;48.854;9.158;2023-07-29T05:18:09;4.47;;;4.07;;
14015;SDS011;7083;48.854;9.158;2023-07-29T05:20:36;3.97;;;3.67;;
14015;SDS011;7083;48.854;9.158;2023-07-29T05:23:04;5.27;;;4.40;;
14015;SDS011;7083;48.854;9.158;2023-07-29T05:25:31;5.10;;;4.27;;
14015;SDS011;7083;48.854;9.158;2023-07-29T05:27:59;5.23;;;3.60;;
14015;SDS011;7083;48.854;9.158;2023-07-29T05:30:26;4.47;;;4.13;;
14015;SDS011;7083;48.854;9.158;2023-07-29T05:32:55;3.80;;;3.50;;
14015;SDS011;7083;48.854;9.158;2023-07-29T05:35:22;3.90;;;3.60;;
14015;SDS011;7083;48.854;9.158;2023-07-29T05:37:49;4.77;;;3.70;;
14015;SDS011;7083;48.854;9.158;2023-07-29T05:40:17;4.50;;;4.13;;
14015;SDS011;7083;48.854;9.158;2023-07-29T05:42:44;8.50;;;3.70;;
14015;SDS011;7083;48.854;9.158;2023-07-29T05:45:11;4.07;;;3.77;;
14015;SDS011;7083;48.854;9.158;2023-07-29T05:47:38;4.63;;;3.90;;
14015;SDS011;7083;48.854;9.158;2023-07-29T05:50:05;4.43;;;3.60;;
14015;SDS011;7083;48.854;9.158;2023-07-29T05:52:32;6.37;;;3.93;;
14015;SDS011;7083;48.854;9.158;2023-07-29T05:54:59;3.97;;;3.43;;
14015;SDS011;7083;48.854;9.158;2023-07-29T05:57:27;4.43;;;3.10;;
14015;SDS011;7083;48.854;9.158;2023-07-29T05:59:54;4.03;;;3.73;;
14015;SDS011;7083;48.854;9.158;2023-07-29T06:02:21;4.13;;;3.70;;
14015;SDS011;7083;48.854;9.158;2023-07-29T06:04:48;4.13;;;3.80;;
14015;SDS011;7083;48.854;9.158;2023-07-29T06:07:14;4.07;;;3.47;;
14015;SDS011;7083;48.854;9.158;2023-07-29T06:09:41;4.57;;;3.27;;
14015;SDS011;7083;48.854;9.158;2023-07-29T06:12:08;3.37;;;3.13;;
14015;SDS011;7083;48.854;9.158;2023-07-29T06:14:36;3.77;;;3.47;;
14015;SDS011;7083;48.854;9.158;2023-07-29T06:17:03;3.23;;;2.93;;
14015;SDS011;7083;48.854;9.158;2023-07-29T06:19:31;4.57;;;3.37;;
14015;SDS011;7083;48.854;9.158;2023-07-29T06:21:58;3.70;;;3.50;;
14015;SDS011;7083;48.854;9.158;2023-07-29T06:24:26;4.23;;;3.40;;
14015;SDS011;7083;48.854;9.158;2023-07-29T06:26:53;3.63;;;3.33;;
14015;SDS011;7083;48.854;9.158;2023-07-29T06:29:19;3.87;;;3.47;;
14015;SDS011;7083;48.854;9.158;2023-07-29T06:31:47;3.47;;;3.27;;
14015;SDS011;7083;48.854;9.158;2023-07-29T06:34:16;3.83;;;3.17;;
14015;SDS011;7083;48.854;9.158;2023-07-29T06:36:43;3.17;;;3.00;;
14015;SDS011;7083;48.854;9.158;2023-07-29T06:39:10;4.03;;;3.10;;
14015;SDS011;7083;48.854;9.158;2023-07-29T06:41:36;3.20;;;2.90;;
14015;SDS011;7083;48.854;9.158;2023-07-29T06:44:03;6.43;;;3.53;;
14015;SDS011;7083;48.854;9.158;2023-07-29T06:46:30;3.10;;;2.90;;
14015;SDS011;7083;48.854;9.158;2023-07-29T06:48:58;4.47;;;3.40;;
14015;SDS011;7083;48.854;9.158;2023-07-29T06:51:25;4.00;;;3.60;;
14015;SDS011;7083;48.854;9.158;2023-07-29T06:53:54;3.70;;;3.37;;
14015;SDS011;7083;48.854;9.158;2023-07-29T06:56:21;3.27;;;3.07;;
14015;SDS011;7083;48.854;9.158;2023-07-29T06:58:47;3.77;;;3.47;;
14015;SDS011;7083;48.854;9.158;2023-07-29T07:01:14;3.80;;;3.53;;
14015;SDS011;7083;48.854;9.158;2023-07-29T07:03:40;5.70;;;3.23;;
14015;SDS011;7083;48.854;9.158;2023-07-29T07:06:08;4.10;;;3.10;;
14015;SDS011;7083;48.854;9.158;2023-07-29T07:08:35;3.33;;;3.03;;
14015;SDS011;7083;48.854;9.158;2023-07-29T07:11:02;2.63;;;2.53;;
14015;SDS011;7083;48.854;9.158;2023-07-29T07:13:28;3.00;;;2.87;;
14015;SDS011;7083;48.854;9.158;2023-07-29T07:15:55;3.80;;;3.37;;
14015;SDS011;7083;48.854;9.158;2023-07-29T07:18:22;2.33;;;2.13;;
14015;SDS011;7083;48.854;9.158;2023-07-29T07:20:49;2.90;;;2.67;;
14015;SDS011;7083;48.854;9.158;2023-07-29T07:23:17;2.87;;;2.70;;
14015;SDS011;7083;48.854;9.158;2023-07-29T07:25:45;4.83;;;2.73;;
14015;SDS011;7083;48.854;9.158;2023-07-29T07:28:11;2.90;;;2.70;;
14015;SDS011;7083;48.854;9.158;2023-07-29T07:30:39;2.33;;;2.23;;
14015;SDS011;7083;48.854;9.158;2023-07-29T07:33:06;3.67;;;2.30;;
14015;SDS011;7083;48.854;9.158;2023-07-29T07:35:33;2.60;;;2.40;;
14015;SDS011;7083;48.854;9.158;2023-07-29T07:37:59;2.27;;;2.03;;
14015;SDS011;7083;48.854;9.158;2023-07-29T07:40:30;3.07;;;2.37;;
14015;SDS011;7083;48.854;9.158;2023-07-29T07:42:57;2.27;;;2.07;;
14015;SDS011;7083;48.854;9.158;2023-07-29T07:45:23;2.43;;;2.23;;
14015;SDS011;7083;48.854;9.158;2023-07-29T07:47:51;4.67;;;2.47;;
14015;SDS011;7083;48.854;9.158;2023-07-29T07:50:18;2.57;;;2.37;;
14015;SDS011;7083;48.854;9.158;2023-07-29T07:52:44;1.93;;;1.83;;
14015;SDS011;7083;48.854;9.158;2023-07-29T07:55:11;2.00;;;1.90;;
14015;SDS011;7083;48.854;9.158;2023-07-29T07:57:39;3.17;;;3.00;;
14015;SDS011;7083;48.854;9.158;2023-07-29T08:00:06;2.50;;;2.40;;
14015;SDS011;7083;48.854;9.158;2023-07-29T08:02:34;2.53;;;2.43;;
14015;SDS011;7083;48.854;9.158;2023-07-29T08:05:01;6.20;;;2.60;;
14015;SDS011;7083;48.854;9.158;2023-07-29T08:07:27;2.53;;;2.37;;
14015;SDS011;7083;48.854;9.158;2023-07-29T08:09:54;2.77;;;2.57;;
14015;SDS011;7083;48.854;9.158;2023-07-29T08:12:21;3.13;;;2.23;;
14015;SDS011;7083;48.854;9.158;2023-07-29T08:14:49;4.10;;;2.50;;
14015;SDS011;7083;48.854;9.158;2023-07-29T08:17:16;2.33;;;2.20;;
14015;SDS011;7083;48.854;9.158;2023-07-29T08:19:42;2.10;;;2.00;;
14015;SDS011;7083;48.854;9.158;2023-07-29T08:22:09;2.20;;;2.10;;
14015;SDS011;7083;48.854;9.158;2023-07-29T08:24:36;1.93;;;1.83;;
14015;SDS011;7083;48.854;9.158;2023-07-29T08:27:02;2.70;;;1.87;;
14015;SDS011;7083;48.854;9.158;2023-07-29T08:29:29;1.90;;;1.60;;
14015;SDS011;7083;48.854;9.158;2023-07-29T08:31:57;1.77;;;1.77;;
14015;SDS011;7083;48.854;9.158;2023-07-29T08:34:24;1.70;;;1.60;;
14015;SDS011;7083;48.854;9.158;2023-07-29T08:36:50;1.43;;;1.43;;
14015;SDS011;7083;48.854;9.158;2023-07-29T08:39:17;1.80;;;1.80;;
14015;SDS011;7083;48.854;9.158;2023-07-29T08:41:45;1.70;;;1.60;;
14015;SDS011;7083;48.854;9.158;2023-07-29T08:44:21;1.43;;;1.43;;
14015;SDS011;7083;48.854;9.158;2023-07-29T08:46:48;1.40;;;1.40;;
14015;SDS011;7083;48.854;9.158;2023-07-29T08:49:17;2.67;;;1.90;;
14015;SDS011;7083;48.854;9.158;2023-07-29T08:51:45;3.53;;;1.80;;
14015;SDS011;7083;48.854;9.158;2023-07-29T08:54:14;1.70;;;1.60;;
14015;SDS011;7083;48.854;9.158;2023-07-29T08:56:41;1.77;;;1.67;;
14015;SDS011;7083;48.854;9.158;2023-07-29T08:59:09;1.70;;;1.60;;
14015;SDS011;7083;48.854;9.158;2023-07-29T09:01:36;1.60;;;1.50;;
14015;SDS011;7083;48.854;9.158;2023-07-29T09:04:04;1.40;;;1.40;;
14015;SDS011;7083;48.854;9.158;2023-07-29T09:06:32;1.77;;;1.67;;
14015;SDS011;7083;48.854;9.158;2023-07-29T09:09:00;1.40;;;1.40;;
14015;SDS011;7083;48.854;9.158;2023-07-29T09:11:28;2.30;;;1.60;;
14015;SDS011;7083;48.854;9.158;2023-07-29T09:13:54;2.20;;;1.70;;
14015;SDS011;7083;48.854;9.158;2023-07-29T09:16:21;2.13;;;1.47;;
14015;SDS011;7083;48.854;9.158;2023-07-29T09:18:48;1.20;;;1.20;;
14015;SDS011;7083;48.854;9.158;2023-07-29T09:21:15;1.90;;;1.80;;
14015;SDS011;7083;48.854;9.158;2023-07-29T09:23:44;2.00;;;1.17;;
14015;SDS011;7083;48.854;9.158;2023-07-29T09:26:11;1.50;;;1.40;;
14015;SDS011;7083;48.854;9.158;2023-07-29T09:28:38;1.63;;;1.53;;
14015;SDS011;7083;48.854;9.158;2023-07-29T09:31:05;1.73;;;1.63;;
14015;SDS011;7083;48.854;9.158;2023-07-29T09:33:33;1.90;;;1.80;;
14015;SDS011;7083;48.854;9.158;2023-07-29T09:36:01;1.43;;;1.43;;
14015;SDS011;7083;48.854;9.158;2023-07-29T09:38:29;1.37;;;1.37;;
14015;SDS011;7083;48.854;9.158;2023-07-29T09:40:57;1.50;;;1.50;;
14015;SDS011;7083;48.854;9.158;2023-07-29T09:43:28;1.63;;;1.63;;
14015;SDS011;7083;48.854;9.158;2023-07-29T09:45:59;2.20;;;1.60;;
14015;SDS011;7083;48.854;9.158;2023-07-29T09:48:27;1.80;;;1.70;;
14015;SDS011;7083;48.854;9.158;2023-07-29T09:50:54;1.70;;;1.50;;
14015;SDS011;7083;48.854;9.158;2023-07-29T09:53:21;4.70;;;1.83;;
14015;SDS011;7083;48.854;9.158;2023-07-29T09:55:48;1.63;;;1.53;;
14015;SDS011;7083;48.854;9.158;2023-07-29T09:58:16;1.67;;;1.57;;
14015;SDS011;7083;48.854;9.158;2023-07-29T10:00:51;1.90;;;1.80;;
14015;SDS011;7083;48.854;9.158;2023-07-29T10:03:18;1.90;;;1.80;;
14015;SDS011;7083;48.854;9.158;2023-07-29T10:05:46;1.90;;;1.80;;
14015;SDS011;7083;48.854;9.158;2023-07-29T10:08:14;1.70;;;1.70;;
14015;SDS011;7083;48.854;9.158;2023-07-29T10:10:41;1.77;;;1.67;;
14015;SDS011;7083;48.854;9.158;2023-07-29T10:13:08;1.60;;;1.57;;
14015;SDS011;7083;48.854;9.158;2023-07-29T10:15:37;1.50;;;1.50;;
14015;SDS011;7083;48.854;9.158;2023-07-29T10:18:04;1.50;;;1.50;;
14015;SDS011;7083;48.854;9.158;2023-07-29T10:20:31;1.20;;;1.20;;
14015;SDS011;7083;48.854;9.158;2023-07-29T10:23:00;2.30;;;1.30;;
14015;SDS011;7083;48.854;9.158;2023-07-29T10:25:30;1.10;;;1.10;;
14015;SDS011;7083;48.854;9.158;2023-07-29T10:28:05;1.17;;;1.00;;
14015;SDS011;7083;48.854;9.158;2023-07-29T10:30:33;1.10;;;1.10;;
14015;SDS011;7083;48.854;9.158;2023-07-29T10:33:02;1.30;;;1.30;;
14015;SDS011;7083;48.854;9.158;2023-07-29T10:35:31;1.37;;;1.27;;
14015;SDS011;7083;48.854;9.158;2023-07-29T10:37:59;1.80;;;1.70;;
14015;SDS011;7083;48.854;9.158;2023-07-29T10:40:27;2.00;;;1.80;;
14015;SDS011;7083;48.854;9.158;2023-07-29T10:43:10;1.43;;;1.33;;
14015;SDS011;7083;48.854;9.158;2023-07-29T10:45:40;1.73;;;1.63;;
14015;SDS011;7083;48.854;9.158;2023-07-29T10:48:11;1.57;;;1.57;;
14015;SDS011;7083;48.854;9.158;2023-07-29T10:50:38;2.60;;;1.50;;
14015;SDS011;7083;48.854;9.158;2023-07-29T10:53:05;1.70;;;1.60;;
14015;SDS011;7083;48.854;9.158;2023-07-29T10:55:32;2.87;;;1.50;;
14015;SDS011;7083;48.854;9.158;2023-07-29T10:58:05;1.60;;;1.50;;
14015;SDS011;7083;48.854;9.158;2023-07-29T11:00:33;1.50;;;1.40;;
14015;SDS011;7083;48.854;9.158;2023-07-29T11:03:00;1.27;;;1.20;;
14015;SDS011;7083;48.854;9.158;2023-07-29T11:05:43;1.30;;;1.30;;
14015;SDS011;7083;48.854;9.158;2023-07-29T11:08:22;3.27;;;1.63;;
14015;SDS011;7083;48.854;9.158;2023-07-29T11:10:59;1.80;;;1.43;;
14015;SDS011;7083;48.854;9.158;2023-07-29T11:13:28;2.17;;;1.53;;
14015;SDS011;7083;48.854;9.158;2023-07-29T11:15:56;1.83;;;1.70;;
14015;SDS011;7083;48.854;9.158;2023-07-29T11:18:24;1.53;;;1.53;;
14015;SDS011;7083;48.854;9.158;2023-07-29T11:20:54;1.60;;;1.60;;
14015;SDS011;7083;48.854;9.158;2023-07-29T11:23:21;1.23;;;1.23;;
14015;SDS011;7083;48.854;9.158;2023-07-29T11:25:54;1.10;;;1.10;;
14015;SDS011;7083;48.854;9.158;2023-07-29T11:28:21;1.40;;;1.40;;
14015;SDS011;7083;48.854;9.158;2023-07-29T11:30:49;1.23;;;1.23;;
14015;SDS011;7083;48.854;9.158;2023-07-29T11:33:17;1.37;;;1.30;;
14015;SDS011;7083;48.854;9.158;2023-07-29T11:35:44;1.30;;;1.30;;
14015;SDS011;7083;48.854;9.158;2023-07-29T11:38:15;1.10;;;1.10;;
14015;SDS011;7083;48.854;9.158;2023-07-29T11:40:42;1.10;;;1.10;;
14015;SDS011;7083;48.854;9.158;2023-07-29T11:43:19;1.30;;;1.30;;
14015;SDS011;7083;48.854;9.158;2023-07-29T11:45:45;1.60;;;1.50;;
14015;SDS011;7083;48.854;9.158;2023-07-29T11:48:12;1.00;;;1.00;;
14015;SDS011;7083;48.854;9.158;2023-07-29T11:50:39;0.97;;;0.97;;
14015;SDS011;7083;48.854;9.158;2023-07-29T11:53:06;1.30;;;1.30;;
14015;SDS011;7083;48.854;9.158;2023-07-29T11:55:34;1.47;;;1.47;;
14015;SDS011;7083;48.854;9.158;2023-07-29T11:58:01;1.20;;;1.20;;
14015;SDS011;7083;48.854;9.158;2023-07-29T12:00:28;1.27;;;1.27;;
14015;SDS011;7083;48.854;9.158;2023-07-29T12:02:55;1.37;;;1.37;;
14015;SDS011;7083;48.854;9.158;2023-07-29T12:05:22;1.40;;;1.40;;
14015;SDS011;7083;48.854;9.158;2023-07-29T12:07:50;1.20;;;1.20;;
14015;SDS011;7083;48.854;9.158;2023-07-29T12:10:16;1.27;;;1.27;;
14015;SDS011;7083;48.854;9.158;2023-07-29T12:12:45;1.27;;;1.27;;
14015;SDS011;7083;48.854;9.158;2023-07-29T12:15:12;1.30;;;1.30;;
14015;SDS011;7083;48.854;9.158;2023-07-29T12:17:39;1.70;;;1.60;;
14015;SDS011;7083;48.854;9.158;2023-07-29T12:20:08;1.13;;;1.13;;
14015;SDS011;7083;48.854;9.158;2023-07-29T12:22:35;1.67;;;1.67;;
14015;SDS011;7083;48.854;9.158;2023-07-29T12:25:02;1.60;;;1.50;;
14015;SDS011;7083;48.854;9.158;2023-07-29T12:27:30;2.17;;;1.60;;
14015;SDS011;7083;48.854;9.158;2023-07-29T12:30:00;1.73;;;1.60;;
14015;SDS011;7083;48.854;9.158;2023-07-29T12:32:29;1.83;;;1.73;;
14015;SDS011;7083;48.854;9.158;2023-07-29T12:34:55;3.00;;;1.37;;
14015;SDS011;7083;48.854;9.158;2023-07-29T12:37:30;1.27;;;1.27;;
14015;SDS011;7083;48.854;9.158;2023-07-29T12:39:57;1.53;;;1.53;;
14015;SDS011;7083;48.854;9.158;2023-07-29T12:42:24;1.70;;;1.60;;
14015;SDS011;7083;48.854;9.158;2023-07-29T12:44:50;1.60;;;1.53;;
14015;SDS011;7083;48.854;9.158;2023-07-29T12:47:18;1.87;;;1.77;;
14015;SDS011;7083;48.854;9.158;2023-07-29T12:49:45;1.40;;;1.30;;
14015;SDS011;7083;48.854;9.158;2023-07-29T12:52:12;1.63;;;1.63;;
14015;SDS011;7083;48.854;9.158;2023-07-29T12:54:39;2.37;;;1.63;;
14015;SDS011;7083;48.854;9.158;2023-07-29T12:57:09;1.40;;;1.40;;
14015;SDS011;7083;48.854;9.158;2023-07-29T12:59:36;1.67;;;1.50;;
14015;SDS011;7083;48.854;9.158;2023-07-29T13:02:02;1.50;;;1.50;;
14015;SDS011;7083;48.854;9.158;2023-07-29T13:04:30;1.20;;;1.20;;
14015;SDS011;7083;48.854;9.158;2023-07-29T13:06:57;2.27;;;1.40;;
14015;SDS011;7083;48.854;9.158;2023-07-29T13:09:25;1.60;;;1.50;;
14015;SDS011;7083;48.854;9.158;2023-07-29T13:11:51;1.77;;;1.67;;
14015;SDS011;7083;48.854;9.158;2023-07-29T13:14:18;1.50;;;1.50;;
14015;SDS011;7083;48.854;9.158;2023-07-29T13:16:44;1.30;;;1.30;;
14015;SDS011;7083;48.854;9.158;2023-07-29T13:19:11;1.60;;;1.50;;
14015;SDS011;7083;48.854;9.158;2023-07-29T13:21:40;2.20;;;1.30;;
14015;SDS011;7083;48.854;9.158;2023-07-29T13:24:07;1.30;;;1.30;;
14015;SDS011;7083;48.854;9.158;2023-07-29T13:26:34;1.23;;;1.23;;
14015;SDS011;7083;48.854;9.158;2023-07-29T13:29:01;1.20;;;1.20;;
14015;SDS011;7083;48.854;9.158;2023-07-29T13:31:29;1.35;;;1.35;;
14015;SDS011;7083;48.854;9.158;2023-07-29T13:33:56;1.55;;;1.50;;
14015;SDS011;7083;48.854;9.158;2023-07-29T13:36:22;1.40;;;1.40;;
14015;SDS011;7083;48.854;9.158;2023-07-29T13:38:50;1.30;;;1.25;;
14015;SDS011;7083;48.854;9.158;2023-07-29T13:41:17;1.20;;;1.20;;
14015;SDS011;7083;48.854;9.158;2023-07-29T13:43:44;1.50;;;1.50;;
14015;SDS011;7083;48.854;9.158;2023-07-29T13:46:10;1.85;;;1.40;;
14015;SDS011;7083;48.854;9.158;2023-07-29T13:48:37;1.90;;;1.80;;
14015;SDS011;7083;48.854;9.158;2023-07-29T13:51:04;2.03;;;1.73;;
14015;SDS011;7083;48.854;9.158;2023-07-29T13:53:30;1.30;;;1.30;;
14015;SDS011;7083;48.854;9.158;2023-07-29T13:55:58;1.27;;;1.27;;
14015;SDS011;7083;48.854;9.158;2023-07-29T13:58:25;2.45;;;1.40;;
14015;SDS011;7083;48.854;9.158;2023-07-29T14:00:52;1.40;;;1.40;;
14015;SDS011;7083;48.854;9.158;2023-07-29T14:03:18;1.08;;;1.08;;
14015;SDS011;7083;48.854;9.158;2023-07-29T14:05:45;2.35;;;1.45;;
14015;SDS011;7083;48.854;9.158;2023-07-29T14:08:12;1.38;;;1.38;;
14015;SDS011;7083;48.854;9.158;2023-07-29T14:10:39;1.65;;;1.58;;
14015;SDS011;7083;48.854;9.158;2023-07-29T14:13:07;1.52;;;1.52;;
14015;SDS011;7083;48.854;9.158;2023-07-29T14:15:33;2.15;;;1.58;;
14015;SDS011;7083;48.854;9.158;2023-07-29T14:18:00;1.58;;;1.58;;
14015;SDS011;7083;48.854;9.158;2023-07-29T14:20:27;2.15;;;1.30;;
14015;SDS011;7083;48.854;9.158;2023-07-29T14:22:54;1.20;;;1.20;;
14015;SDS011;7083;48.854;9.158;2023-07-29T14:25:21;1.70;;;1.60;;
14015;SDS011;7083;48.854;9.158;2023-07-29T14:27:47;1.33;;;1.33;;
14015;SDS011;7083;48.854;9.158;2023-07-29T14:30:15;1.05;;;1.05;;
14015;SDS011;7083;48.854;9.158;2023-07-29T14:32:42;1.38;;;1.38;;
14015;SDS011;7083;48.854;9.158;2023-07-29T14:35:09;1.35;;;1.35;;
14015;SDS011;7083;48.854;9.158;2023-07-29T14:37:35;1.65;;;1.55;;
14015;SDS011;7083;48.854;9.158;2023-07-29T14:40:03;1.40;;;1.40;;
14015;SDS011;7083;48.854;9.158;2023-07-29T14:42:30;1.30;;;1.30;;
14015;SDS011;7083;48.854;9.158;2023-07-29T14:44:57;1.55;;;1.45;;
14015;SDS011;7083;48.854;9.158;2023-07-29T14:47:25;1.67;;;1.67;;
14015;SDS011;7083;48.854;9.158;2023-07-29T14:49:51;1.70;;;1.60;;
14015;SDS011;7083;48.854;9.158;2023-07-29T14:52:18;2.83;;;1.80;;
14015;SDS011;7083;48.854;9.158;2023-07-29T14:54:45;2.25;;;1.60;;
14015;SDS011;7083;48.854;9.158;2023-07-29T14:57:12;1.02;;;1.02;;
14015;SDS011;7083;48.854;9.158;2023-07-29T14:59:39;1.65;;;1.55;;
14015;SDS011;7083;48.854;9.158;2023-07-29T15:02:06;1.35;;;1.35;;